Time;durP1;ratioP1;P1;durP2;ratioP2;P2;SDS_P1;SDS_P2;PMS_P1;PMS_P2;Temp;Humidity;BMP_temperature;BMP_pressure;BME280_temperature;BME280_humidity;BME280_pressure;Samples;Min_cycle;Max_cycle;Signal;HPM_P1;HPM_P2
2021/10/27 00:02:06;;;;;;;12.30;10.93;;;13.40;99.90;;;;;;5017794;28;20671;-70
2021/10/27 00:04:32;;;;;;;14.83;11.87;;;13.40;99.90;;;;;;5022732;28;20250;-70
2021/10/27 00:07:00;;;;;;;14.80;10.50;;;13.40;99.90;;;;;;5015075;28;20647;-70
2021/10/27 00:09:26;;;;;;;12.47;10.90;;;13.40;99.90;;;;;;5024633;28;20217;-71
2021/10/27 00:11:57;;;;;;;17.40;11.87;;;13.40;99.90;;;;;;5022678;28;20660;-71
2021/10/27 00:14:32;;;;;;;13.90;11.40;;;13.40;99.90;;;;;;5025571;28;20626;-70
2021/10/27 00:16:58;;;;;;;13.30;10.87;;;13.50;99.90;;;;;;5020296;28;20185;-71
2021/10/27 00:19:23;;;;;;;20.40;11.27;;;13.50;99.90;;;;;;5024069;28;20995;-70
2021/10/27 00:21:51;;;;;;;16.80;12.37;;;13.40;99.90;;;;;;5024473;28;20224;-70
2021/10/27 00:24:16;;;;;;;15.80;11.17;;;13.50;99.90;;;;;;5022063;28;20196;-70
2021/10/27 00:26:42;;;;;;;13.07;11.47;;;13.50;99.90;;;;;;5021940;28;20653;-71
2021/10/27 00:29:08;;;;;;;13.63;10.80;;;13.50;99.90;;;;;;5021148;28;20212;-71
2021/10/27 00:31:33;;;;;;;17.60;12.27;;;13.50;99.90;;;;;;5021505;28;20224;-71
2021/10/27 00:34:01;;;;;;;16.73;11.87;;;13.50;99.90;;;;;;5022512;28;20675;-70
2021/10/27 00:36:29;;;;;;;14.73;12.70;;;13.50;99.90;;;;;;5006248;28;20529;-71
2021/10/27 00:38:55;;;;;;;15.23;13.07;;;13.50;99.90;;;;;;5025900;28;21035;-70
2021/10/27 00:41:20;;;;;;;13.83;12.20;;;13.50;99.90;;;;;;5024943;28;20639;-70
2021/10/27 00:43:54;;;;;;;19.37;12.73;;;13.50;99.90;;;;;;5022992;28;20302;-70
2021/10/27 00:46:24;;;;;;;14.13;11.70;;;13.50;99.90;;;;;;5012862;28;20279;-70
2021/10/27 00:48:51;;;;;;;15.70;12.83;;;13.50;99.90;;;;;;5022421;28;21076;-70
2021/10/27 00:51:23;;;;;;;15.40;12.53;;;13.50;99.90;;;;;;5019677;28;20627;-70
2021/10/27 00:53:52;;;;;;;14.77;11.20;;;13.50;99.90;;;;;;5023370;28;20588;-70
2021/10/27 00:56:19;;;;;;;13.40;11.67;;;13.50;99.90;;;;;;5023990;28;20618;-71
2021/10/27 00:58:47;;;;;;;15.00;11.93;;;13.60;99.90;;;;;;5021232;28;20615;-71
2021/10/27 01:01:12;;;;;;;14.30;12.50;;;13.60;99.90;;;;;;5020133;28;21242;-70
2021/10/27 01:03:38;;;;;;;14.80;11.67;;;13.60;99.90;;;;;;5020880;28;20659;-71
2021/10/27 01:06:04;;;;;;;17.67;12.20;;;13.60;99.90;;;;;;5020728;28;20306;-71
2021/10/27 01:08:35;;;;;;;15.63;12.40;;;13.60;99.90;;;;;;5022441;28;20192;-70
2021/10/27 01:11:04;;;;;;;13.60;10.67;;;13.60;99.90;;;;;;5021130;28;20990;-70
2021/10/27 01:13:30;;;;;;;16.50;10.93;;;13.60;99.90;;;;;;5025064;28;20657;-70
2021/10/27 01:15:55;;;;;;;18.80;12.60;;;13.60;99.90;;;;;;5009429;28;21072;-70
2021/10/27 01:18:23;;;;;;;14.60;11.80;;;13.70;99.90;;;;;;5026666;28;20184;-70
2021/10/27 01:20:49;;;;;;;14.70;11.03;;;13.60;99.90;;;;;;5025248;28;20217;-70
2021/10/27 01:23:17;;;;;;;13.80;11.40;;;13.60;99.90;;;;;;5025025;28;20647;-71
2021/10/27 01:25:52;;;;;;;13.40;10.87;;;13.60;99.90;;;;;;5026851;28;20323;-70
2021/10/27 01:28:28;;;;;;;16.90;11.93;;;13.60;99.90;;;;;;5029568;28;21198;-70
2021/10/27 01:30:53;;;;;;;20.10;12.20;;;13.60;99.90;;;;;;5027228;28;21256;-70
2021/10/27 01:33:19;;;;;;;16.93;12.43;;;13.60;99.90;;;;;;5030081;28;20663;-71
2021/10/27 01:35:47;;;;;;;15.27;12.53;;;13.70;99.90;;;;;;5028029;28;20653;-71
2021/10/27 01:38:17;;;;;;;14.33;12.80;;;13.70;99.90;;;;;;5028026;28;20199;-70
2021/10/27 01:40:47;;;;;;;16.10;12.00;;;13.70;99.90;;;;;;5024492;28;20635;-70
2021/10/27 01:43:15;;;;;;;15.10;11.77;;;13.70;99.90;;;;;;5027490;28;20990;-70
2021/10/27 01:45:41;;;;;;;18.03;12.73;;;13.70;99.90;;;;;;5025981;28;20719;-71
2021/10/27 01:48:08;;;;;;;16.97;12.70;;;13.70;99.90;;;;;;5027357;28;20721;-71
2021/10/27 01:50:46;;;;;;;16.33;12.40;;;13.80;99.90;;;;;;5008693;28;20303;-71
2021/10/27 01:53:15;;;;;;;19.83;13.07;;;13.80;99.90;;;;;;5025173;28;20662;-71
2021/10/27 01:55:43;;;;;;;14.70;13.03;;;13.80;99.90;;;;;;5027388;28;20622;-71
2021/10/27 01:58:12;;;;;;;16.67;12.90;;;13.80;99.90;;;;;;5023537;28;20677;-71
2021/10/27 02:00:40;;;;;;;16.87;13.07;;;13.80;99.90;;;;;;5024264;28;21014;-71
2021/10/27 02:03:06;;;;;;;14.13;12.23;;;13.80;99.90;;;;;;5024434;28;20805;-71
2021/10/27 02:05:34;;;;;;;15.53;12.63;;;13.90;99.90;;;;;;5025742;28;20683;-71
2021/10/27 02:08:00;;;;;;;19.57;13.70;;;13.80;99.90;;;;;;5023107;28;20671;-71
2021/10/27 02:10:26;;;;;;;16.53;13.03;;;13.80;99.90;;;;;;5024525;28;20773;-71
2021/10/27 02:12:55;;;;;;;15.90;12.27;;;13.80;99.90;;;;;;5025447;28;20331;-71
2021/10/27 02:15:21;;;;;;;17.27;12.63;;;13.90;99.90;;;;;;5024751;28;20196;-72
2021/10/27 02:17:56;;;;;;;16.23;12.33;;;13.90;99.90;;;;;;5025272;28;20657;-71
2021/10/27 02:20:22;;;;;;;18.57;14.07;;;13.90;99.90;;;;;;5023712;28;20613;-71
2021/10/27 02:22:50;;;;;;;14.90;12.60;;;13.80;99.90;;;;;;5025285;28;20647;-71
2021/10/27 02:25:15;;;;;;;15.33;13.60;;;13.80;99.90;;;;;;5022945;28;20315;-71
2021/10/27 02:27:45;;;;;;;16.87;13.80;;;13.90;99.90;;;;;;5026290;28;20714;-71
2021/10/27 02:30:13;;;;;;;17.07;13.20;;;13.90;99.90;;;;;;5025795;28;20557;-70
2021/10/27 02:32:45;;;;;;;18.83;13.70;;;13.90;99.90;;;;;;5025122;28;20681;-70
2021/10/27 02:35:16;;;;;;;17.93;14.57;;;14.00;99.90;;;;;;5024205;28;20610;-70
2021/10/27 02:37:44;;;;;;;17.67;13.77;;;14.00;99.90;;;;;;5025748;28;20607;-70
2021/10/27 02:40:17;;;;;;;17.60;14.00;;;14.00;99.90;;;;;;5007975;28;20672;-70
2021/10/27 02:42:45;;;;;;;18.53;13.00;;;14.00;99.90;;;;;;5028282;28;20642;-70
2021/10/27 02:45:14;;;;;;;16.17;13.20;;;14.00;99.90;;;;;;5007712;28;21161;-72
2021/10/27 02:47:42;;;;;;;15.73;13.20;;;14.00;99.90;;;;;;5027173;28;20626;-70
2021/10/27 02:50:12;;;;;;;16.47;14.40;;;14.00;99.90;;;;;;5024561;28;20639;-71
2021/10/27 02:52:39;;;;;;;18.13;15.00;;;13.90;99.90;;;;;;5027134;28;20654;-70
2021/10/27 02:55:05;;;;;;;16.70;13.83;;;14.00;99.90;;;;;;5016820;28;20621;-70
2021/10/27 02:57:31;;;;;;;19.57;13.90;;;14.00;99.90;;;;;;5023736;28;20615;-70
2021/10/27 03:00:07;;;;;;;17.93;13.43;;;14.00;99.90;;;;;;5012489;28;20994;-70
2021/10/27 03:02:35;;;;;;;18.97;14.03;;;14.00;99.90;;;;;;5025668;28;20253;-71
2021/10/27 03:05:05;;;;;;;18.83;13.73;;;13.90;99.90;;;;;;5026250;28;20710;-71
2021/10/27 03:07:32;;;;;;;17.33;13.57;;;14.00;99.90;;;;;;5024148;28;21215;-71
2021/10/27 03:09:58;;;;;;;16.43;13.10;;;13.90;99.90;;;;;;5026061;28;20651;-70
2021/10/27 03:12:26;;;;;;;17.00;13.80;;;14.00;99.90;;;;;;5026330;28;20642;-71
2021/10/27 03:14:53;;;;;;;20.93;14.90;;;14.00;99.90;;;;;;5008520;28;20559;-70
2021/10/27 03:17:21;;;;;;;20.00;14.67;;;14.00;99.90;;;;;;5022885;28;20618;-70
2021/10/27 03:19:51;;;;;;;16.73;14.20;;;14.00;99.90;;;;;;5024499;28;20658;-70
2021/10/27 03:22:19;;;;;;;19.17;14.50;;;14.00;99.90;;;;;;5024267;28;20662;-71
2021/10/27 03:24:45;;;;;;;18.90;14.40;;;14.00;99.90;;;;;;5024488;28;20793;-71
2021/10/27 03:27:20;;;;;;;17.20;14.00;;;14.00;99.90;;;;;;5024240;28;20722;-72
2021/10/27 03:29:46;;;;;;;19.20;14.93;;;14.00;99.90;;;;;;5023224;28;20212;-72
2021/10/27 03:32:13;;;;;;;17.80;14.20;;;14.00;99.90;;;;;;5011551;28;20647;-72
2021/10/27 03:34:39;;;;;;;17.43;14.87;;;14.00;99.90;;;;;;5024108;28;20819;-72
2021/10/27 03:37:06;;;;;;;22.27;15.00;;;14.00;99.90;;;;;;5022366;28;20599;-72
2021/10/27 03:39:34;;;;;;;17.80;13.53;;;14.00;99.90;;;;;;5023088;28;20608;-72
2021/10/27 03:42:00;;;;;;;17.00;14.33;;;14.10;99.90;;;;;;5023657;28;21048;-72
2021/10/27 03:44:28;;;;;;;18.00;14.47;;;14.00;99.90;;;;;;5024045;28;20647;-72
2021/10/27 03:46:54;;;;;;;17.60;14.93;;;14.10;99.90;;;;;;5020854;28;20192;-72
2021/10/27 03:49:20;;;;;;;19.67;14.87;;;14.20;99.90;;;;;;5024950;28;20647;-72
2021/10/27 03:51:46;;;;;;;17.03;13.90;;;14.10;99.90;;;;;;5021032;28;20212;-72
2021/10/27 03:54:12;;;;;;;18.70;13.77;;;14.10;99.90;;;;;;5026116;28;20712;-71
2021/10/27 03:56:38;;;;;;;17.07;13.70;;;14.10;99.90;;;;;;5022680;28;20630;-72
2021/10/27 03:59:03;;;;;;;18.93;14.43;;;14.10;99.90;;;;;;5022793;28;20189;-71
2021/10/27 04:01:29;;;;;;;17.23;14.60;;;14.10;99.90;;;;;;5019449;28;20599;-71
2021/10/27 04:04:00;;;;;;;20.60;13.93;;;14.20;99.90;;;;;;5026629;28;20200;-71
2021/10/27 04:06:28;;;;;;;19.40;15.00;;;14.20;99.90;;;;;;5022685;28;20672;-71
2021/10/27 04:08:58;;;;;;;18.17;14.80;;;14.20;99.90;;;;;;5020860;28;20607;-71
2021/10/27 04:11:26;;;;;;;17.93;14.53;;;14.20;99.90;;;;;;5022646;28;20643;-71
2021/10/27 04:13:54;;;;;;;18.93;13.87;;;14.20;99.90;;;;;;5026335;28;20662;-70
2021/10/27 04:16:24;;;;;;;21.27;15.90;;;14.20;99.90;;;;;;5021535;28;20623;-70
2021/10/27 04:19:00;;;;;;;20.93;15.40;;;14.20;99.90;;;;;;5024825;28;20603;-70
2021/10/27 04:21:26;;;;;;;18.27;15.83;;;14.20;99.90;;;;;;5024365;28;20635;-71
2021/10/27 04:23:53;;;;;;;19.20;15.93;;;14.20;99.90;;;;;;5025608;28;20600;-70
2021/10/27 04:26:19;;;;;;;18.20;15.17;;;14.30;99.90;;;;;;5023395;28;20689;-70
2021/10/27 04:28:59;;;;;;;;;;;;;;;;;;;;;
2021/10/27 04:31:25;;;;;;;18.00;14.73;;;14.10;99.90;;;;;;5021651;28;20796;-70
2021/10/27 04:33:51;;;;;;;17.83;15.93;;;14.10;99.90;;;;;;5023250;28;20615;-71
2021/10/27 04:36:19;;;;;;;19.80;15.20;;;14.10;99.90;;;;;;5024256;28;20216;-71
2021/10/27 04:38:44;;;;;;;19.93;16.10;;;14.10;99.90;;;;;;5023902;28;20189;-70
2021/10/27 04:41:15;;;;;;;23.63;18.07;;;14.10;99.90;;;;;;5020953;28;21060;-70
2021/10/27 04:43:47;;;;;;;22.77;17.00;;;14.10;99.90;;;;;;5024277;28;20378;-71
2021/10/27 04:46:13;;;;;;;23.60;14.93;;;14.10;99.90;;;;;;5020785;28;20598;-70
2021/10/27 04:48:41;;;;;;;20.47;15.27;;;14.10;99.90;;;;;;5015299;28;20624;-73
2021/10/27 04:51:09;;;;;;;16.77;14.97;;;14.20;99.90;;;;;;5021743;28;20240;-70
2021/10/27 04:53:37;;;;;;;22.17;16.57;;;14.20;99.90;;;;;;5024918;28;20660;-72
2021/10/27 04:56:06;;;;;;;22.00;17.90;;;14.10;99.90;;;;;;5024978;28;20741;-72
2021/10/27 04:58:35;;;;;;;16.73;14.83;;;14.20;99.90;;;;;;5016350;28;20622;-73
2021/10/27 05:01:00;;;;;;;21.63;17.20;;;14.20;99.90;;;;;;5019179;28;20640;-73
2021/10/27 05:03:30;;;;;;;17.77;15.77;;;14.30;99.90;;;;;;5014536;28;21314;-73
2021/10/27 05:06:01;;;;;;;20.77;16.87;;;14.20;99.90;;;;;;5013389;28;20219;-73
2021/10/27 05:08:30;;;;;;;23.43;16.17;;;14.20;99.90;;;;;;5001484;28;20930;-72
2021/10/27 05:10:55;;;;;;;21.10;17.13;;;14.20;99.90;;;;;;4996592;28;20670;-72
2021/10/27 05:13:21;;;;;;;17.37;14.70;;;14.20;99.90;;;;;;5007202;28;20655;-72
2021/10/27 05:15:51;;;;;;;19.83;16.20;;;14.30;99.90;;;;;;4991744;28;20193;-72
2021/10/27 05:18:19;;;;;;;21.60;15.43;;;14.30;99.90;;;;;;5012819;28;21259;-73
2021/10/27 05:20:45;;;;;;;19.50;16.60;;;14.30;99.90;;;;;;5001604;28;20717;-72
2021/10/27 05:23:14;;;;;;;18.97;14.70;;;14.30;99.90;;;;;;5019601;28;20654;-72
2021/10/27 05:25:45;;;;;;;17.83;15.50;;;14.30;99.90;;;;;;5020826;28;20622;-64
2021/10/27 05:28:16;;;;;;;18.00;14.73;;;14.30;99.90;;;;;;5015546;28;20587;-72
2021/10/27 05:30:44;;;;;;;20.13;15.03;;;14.30;99.90;;;;;;5016265;28;20669;-72
2021/10/27 05:33:11;;;;;;;18.60;16.23;;;14.30;99.90;;;;;;5021503;28;21083;-72
2021/10/27 05:35:45;;;;;;;18.97;15.30;;;14.30;99.90;;;;;;5014001;28;20644;-71
2021/10/27 05:38:10;;;;;;;25.57;16.70;;;14.20;99.90;;;;;;5018109;28;20697;-71
2021/10/27 05:40:38;;;;;;;20.23;16.23;;;14.20;99.90;;;;;;5019904;28;21056;-72
2021/10/27 05:43:15;;;;;;;23.20;15.87;;;14.20;99.90;;;;;;5022391;28;20213;-71
2021/10/27 05:45:52;;;;;;;22.40;16.37;;;14.30;99.90;;;;;;5025240;28;21260;-71
2021/10/27 05:48:32;;;;;;;22.90;16.90;;;14.30;99.90;;;;;;5024315;28;21209;-72
2021/10/27 05:51:46;;;;;;;17.90;15.40;;;14.30;99.90;;;;;;5024310;28;20928;-72
2021/10/27 05:56:50;;;;;;;18.57;15.23;;;14.30;99.90;;;;;;4942888;28;20642;-73
2021/10/27 05:59:16;;;;;;;20.63;16.70;;;14.30;99.90;;;;;;4945748;28;20619;-72
2021/10/27 06:01:42;;;;;;;22.73;16.47;;;14.30;99.90;;;;;;4983694;28;20224;-72
2021/10/27 06:04:07;;;;;;;22.03;16.00;;;14.30;99.90;;;;;;5030137;28;20647;-72
2021/10/27 06:06:38;;;;;;;24.20;16.47;;;14.20;99.90;;;;;;5031448;28;20196;-72
2021/10/27 06:09:06;;;;;;;19.23;14.87;;;14.20;99.90;;;;;;5030536;28;20716;-72
2021/10/27 06:11:33;;;;;;;23.57;15.70;;;14.20;99.90;;;;;;5027764;28;20651;-71
2021/10/27 06:14:02;;;;;;;19.87;16.50;;;14.20;99.90;;;;;;5030393;28;20634;-71
2021/10/27 06:16:35;;;;;;;18.87;14.60;;;14.20;99.90;;;;;;5029742;28;20622;-72
2021/10/27 06:19:09;;;;;;;19.20;16.30;;;14.20;99.90;;;;;;5031243;28;21150;-72
2021/10/27 06:21:34;;;;;;;19.50;14.70;;;14.20;99.90;;;;;;5027805;28;20984;-72
2021/10/27 06:24:04;;;;;;;19.77;15.27;;;14.30;99.90;;;;;;5029690;28;20612;-72
2021/10/27 06:26:32;;;;;;;18.97;15.23;;;14.30;99.90;;;;;;5028831;28;20192;-71
2021/10/27 06:29:04;;;;;;;20.23;16.40;;;14.30;99.90;;;;;;5029899;28;20946;-72
2021/10/27 06:31:34;;;;;;;20.37;14.87;;;14.30;99.90;;;;;;5029710;28;20615;-71
2021/10/27 06:47:37;;;;;;;19.77;15.53;;;14.30;99.90;;;;;;5029565;28;20587;-71
2021/10/27 06:50:03;;;;;;;21.13;15.40;;;14.30;99.90;;;;;;5028682;28;20643;-71
2021/10/27 06:52:32;;;;;;;16.90;13.70;;;14.30;99.90;;;;;;5030479;28;20677;-71
2021/10/27 06:55:02;;;;;;;19.50;15.40;;;14.30;99.90;;;;;;5027775;28;20654;-71
2021/10/27 06:57:30;;;;;;;20.77;14.90;;;14.30;99.90;;;;;;5030923;28;20595;-71
2021/10/27 07:00:00;;;;;;;20.80;14.33;;;14.30;99.90;;;;;;5028755;28;20803;-71
2021/10/27 07:16:32;;;;;;;20.00;15.83;;;14.30;99.90;;;;;;5029947;28;20608;-71
2021/10/27 07:18:57;;;;;;;20.67;16.40;;;14.40;99.90;;;;;;5012060;28;20639;-72
2021/10/27 07:21:31;;;;;;;18.13;14.13;;;14.50;99.90;;;;;;5027620;28;20649;-71
2021/10/27 07:24:01;;;;;;;16.10;14.03;;;14.40;99.90;;;;;;5028927;28;20645;-72
2021/10/27 07:26:27;;;;;;;17.70;14.53;;;14.40;99.90;;;;;;5027747;28;20646;-71
2021/10/27 07:28:54;;;;;;;15.70;13.60;;;14.40;99.90;;;;;;5028434;28;20615;-71
2021/10/27 07:31:24;;;;;;;18.40;14.30;;;14.40;99.90;;;;;;5027108;28;20666;-71
2021/10/27 07:34:03;;;;;;;19.93;14.20;;;14.50;99.90;;;;;;5026005;28;20608;-71
2021/10/27 07:39:51;;;;;;;18.13;13.93;;;14.60;99.90;;;;;;5028525;28;20594;-72
2021/10/27 07:42:03;;;;;;;16.77;14.67;;;14.50;99.90;;;;;;5026639;28;20677;-71
2021/10/27 07:44:35;;;;;;;18.73;13.87;;;14.50;99.90;;;;;;5028452;28;20643;-71
2021/10/27 07:47:03;;;;;;;18.83;14.93;;;14.50;99.90;;;;;;5028706;28;20612;-71
2021/10/27 07:49:30;;;;;;;18.73;15.00;;;14.60;99.90;;;;;;5028469;28;21202;-71
2021/10/27 07:51:59;;;;;;;18.57;15.70;;;14.60;99.90;;;;;;5028340;28;20769;-72
2021/10/27 07:54:28;;;;;;;22.87;15.20;;;14.60;99.90;;;;;;5027771;28;20630;-71
2021/10/27 07:56:54;;;;;;;18.97;14.63;;;14.50;99.90;;;;;;5028925;28;20933;-71
2021/10/27 07:59:27;;;;;;;19.90;16.47;;;14.60;99.90;;;;;;5026835;28;20614;-71
2021/10/27 08:01:54;;;;;;;18.50;15.80;;;14.50;99.90;;;;;;5027991;28;20643;-71
2021/10/27 08:04:23;;;;;;;19.60;15.97;;;14.60;99.90;;;;;;5028763;28;20696;-71
2021/10/27 08:06:51;;;;;;;19.20;16.10;;;14.60;99.90;;;;;;5028910;28;20661;-72
2021/10/27 08:09:22;;;;;;;19.50;15.30;;;14.70;99.90;;;;;;5027972;28;20666;-72
2021/10/27 08:11:48;;;;;;;19.20;15.63;;;14.60;99.90;;;;;;5027772;28;20999;-72
2021/10/27 08:14:16;;;;;;;19.63;15.10;;;14.60;99.90;;;;;;5025639;28;20717;-72
2021/10/27 08:16:48;;;;;;;18.70;16.03;;;14.90;99.90;;;;;;5027954;28;20751;-72
2021/10/27 08:19:21;;;;;;;19.33;14.90;;;14.60;99.90;;;;;;5027571;28;20584;-71
2021/10/27 08:21:49;;;;;;;18.03;15.20;;;14.60;99.90;;;;;;5025067;28;20666;-72
2021/10/27 08:24:22;;;;;;;20.10;15.50;;;14.60;99.90;;;;;;5025583;28;20803;-72
2021/10/27 08:26:54;;;;;;;16.10;14.13;;;14.60;99.90;;;;;;5027986;28;20579;-71
2021/10/27 08:29:27;;;;;;;18.43;15.97;;;14.70;99.90;;;;;;5027133;28;20634;-72
2021/10/27 08:31:57;;;;;;;18.30;16.07;;;14.70;99.90;;;;;;5025812;28;20678;-71
2021/10/27 08:34:47;;;;;;;23.37;16.23;;;14.70;99.90;;;;;;5020236;28;20583;-71
2021/10/27 08:37:16;;;;;;;20.97;15.13;;;14.70;99.90;;;;;;5025053;28;21236;-71
2021/10/27 08:39:45;;;;;;;20.53;15.80;;;14.70;99.90;;;;;;5028626;28;20637;-72
2021/10/27 08:42:14;;;;;;;20.73;15.50;;;14.70;99.90;;;;;;5027039;28;20650;-72
2021/10/27 08:44:46;;;;;;;17.10;14.83;;;14.70;99.90;;;;;;5027403;28;21051;-71
2021/10/27 08:47:14;;;;;;;17.00;15.20;;;14.70;99.90;;;;;;5025651;28;20661;-72
2021/10/27 08:49:42;;;;;;;18.60;15.23;;;14.70;99.90;;;;;;5026901;28;20631;-71
2021/10/27 08:52:13;;;;;;;16.67;13.47;;;14.80;99.90;;;;;;5026261;28;20646;-72
2021/10/27 08:54:41;;;;;;;16.30;14.00;;;14.80;99.90;;;;;;5027220;28;20587;-72
2021/10/27 08:57:13;;;;;;;17.17;13.97;;;14.80;99.90;;;;;;5023983;28;20616;-72
2021/10/27 09:05:05;;;;;;;15.93;13.07;;;14.80;99.90;;;;;;5027050;28;20830;-72
2021/10/27 09:07:54;;;;;;;14.53;13.00;;;14.80;99.90;;;;;;5027636;28;21142;-72
2021/10/27 09:39:46;;;;;;;15.83;12.57;;;14.90;99.90;;;;;;5010573;28;20603;-71
2021/10/27 10:04:28;;;;;;;15.93;12.13;;;14.90;99.90;;;;;;5030018;28;20605;-71
2021/10/27 10:06:59;;;;;;;12.93;11.10;;;14.90;99.90;;;;;;5030562;28;20738;-71
2021/10/27 10:09:28;;;;;;;15.70;12.13;;;15.00;99.90;;;;;;5028898;28;20702;-71
2021/10/27 10:11:55;;;;;;;16.00;11.60;;;15.00;99.90;;;;;;5029773;28;20654;-71
2021/10/27 10:14:23;;;;;;;14.70;12.40;;;15.00;99.90;;;;;;5030729;28;20599;-71
2021/10/27 10:16:57;;;;;;;13.80;12.10;;;15.00;99.90;;;;;;5030240;28;20619;-71
2021/10/27 10:19:35;;;;;;;13.73;12.33;;;15.00;99.90;;;;;;5030404;28;20693;-71
2021/10/27 10:22:02;;;;;;;13.97;12.40;;;15.00;99.90;;;;;;5011844;28;21063;-71
2021/10/27 10:24:32;;;;;;;15.43;13.20;;;15.10;99.90;;;;;;5026583;28;20722;-71
2021/10/27 10:27:42;;;;;;;12.67;11.30;;;15.10;99.90;;;;;;5029769;28;20630;-71
2021/10/27 10:30:36;;;;;;;16.10;13.40;;;15.10;99.90;;;;;;5029564;28;20619;-71
2021/10/27 10:33:10;;;;;;;15.60;13.00;;;15.20;99.90;;;;;;5010980;28;20643;-71
2021/10/27 10:35:57;;;;;;;14.60;13.10;;;15.10;99.90;;;;;;5030746;28;20667;-71
2021/10/27 10:39:11;;;;;;;14.60;12.90;;;15.10;99.90;;;;;;5029473;28;20610;-71
2021/10/27 10:57:08;;;;;;;15.33;12.73;;;15.20;99.90;;;;;;5029273;28;20642;-70
2021/10/27 11:43:57;;;;;;;14.23;12.47;;;15.40;99.90;;;;;;5021704;28;20647;-71
2021/10/27 11:46:40;;;;;;;14.37;12.87;;;15.40;99.90;;;;;;5028519;28;20953;-71
2021/10/27 11:49:09;;;;;;;13.20;11.90;;;15.40;99.90;;;;;;5025862;28;21146;-71
2021/10/27 11:51:35;;;;;;;13.43;12.10;;;15.40;99.90;;;;;;5026431;28;20643;-70
2021/10/27 11:54:14;;;;;;;13.80;12.40;;;15.40;99.90;;;;;;5028054;28;20989;-70
2021/10/27 11:56:41;;;;;;;15.00;13.37;;;15.40;99.90;;;;;;5022137;28;20588;-70
2021/10/27 11:59:14;;;;;;;12.90;11.70;;;15.50;99.90;;;;;;5026876;28;20996;-71
2021/10/27 12:01:53;;;;;;;13.50;12.20;;;15.50;99.90;;;;;;5005196;28;20639;-70
2021/10/27 12:04:30;;;;;;;13.17;11.87;;;15.40;99.90;;;;;;5028125;28;20618;-71
2021/10/27 12:07:13;;;;;;;;;;;;;;;;;;;;;
2021/10/27 12:10:00;;;;;;;13.93;12.43;;;15.40;99.90;;;;;;5019677;28;20655;-73
2021/10/27 12:12:48;;;;;;;13.90;12.37;;;15.40;99.90;;;;;;5023753;28;21089;-71
2021/10/27 12:15:39;;;;;;;13.40;12.10;;;15.40;99.90;;;;;;5025932;28;20607;-71
2021/10/27 12:18:12;;;;;;;12.90;11.60;;;15.40;99.90;;;;;;5027462;28;20902;-70
2021/10/27 12:20:52;;;;;;;15.23;12.57;;;15.50;99.90;;;;;;5024341;28;21206;-70
2021/10/27 12:23:27;;;;;;;14.13;12.57;;;15.50;99.90;;;;;;5025440;28;20669;-71
2021/10/27 12:26:15;;;;;;;13.50;12.17;;;15.50;99.90;;;;;;5025083;28;20603;-70
2021/10/27 12:28:42;;;;;;;12.87;11.53;;;15.50;99.90;;;;;;5019777;28;23430;-70
2021/10/27 12:31:15;;;;;;;13.10;11.80;;;15.50;99.90;;;;;;5024876;28;21136;-70
2021/10/27 12:33:43;;;;;;;13.07;11.77;;;15.50;99.90;;;;;;5025516;28;20662;-73
2021/10/27 12:36:34;;;;;;;13.57;11.97;;;15.50;99.90;;;;;;5025624;28;20642;-70
2021/10/27 12:39:09;;;;;;;13.93;12.10;;;15.50;99.90;;;;;;5025246;28;20591;-70
2021/10/27 12:41:38;;;;;;;13.57;12.00;;;15.40;99.90;;;;;;5020653;28;20646;-72
2021/10/27 12:44:22;;;;;;;12.93;11.43;;;15.40;99.90;;;;;;5026839;28;20974;-72
2021/10/27 12:47:16;;;;;;;16.13;11.60;;;15.50;99.90;;;;;;4999923;28;20718;-72
2021/10/27 12:49:44;;;;;;;13.03;11.80;;;15.50;99.90;;;;;;5019975;28;20643;-73
2021/10/27 12:52:29;;;;;;;13.37;11.70;;;15.50;99.90;;;;;;5009042;28;20632;-71
2021/10/27 12:55:11;;;;;;;13.10;11.77;;;15.50;99.90;;;;;;5024471;28;20685;-71
2021/10/27 12:57:51;;;;;;;13.57;12.13;;;15.50;99.90;;;;;;5020840;28;20615;-71
2021/10/27 13:00:37;;;;;;;14.67;12.13;;;15.40;99.90;;;;;;5019965;28;20670;-71
2021/10/27 13:03:23;;;;;;;14.00;12.57;;;15.40;99.90;;;;;;5019063;28;20773;-71
2021/10/27 13:30:21;;;;;;;15.33;12.90;;;15.50;99.90;;;;;;5026505;28;21204;-62
2021/10/27 13:32:54;;;;;;;14.40;13.00;;;15.50;99.90;;;;;;5023963;28;21206;-62
2021/10/27 13:35:24;;;;;;;14.03;12.73;;;15.50;99.90;;;;;;5029059;28;20995;-63
2021/10/27 13:37:52;;;;;;;14.60;13.20;;;15.50;99.90;;;;;;5027985;28;20623;-62
2021/10/27 13:40:21;;;;;;;14.40;13.00;;;15.50;99.90;;;;;;5027952;28;21043;-62
2021/10/27 13:59:05;;;;;;;;;;;;;;;;;;;;;
2021/10/27 14:06:42;;;;;;;15.17;13.77;;;15.50;99.90;;;;;;5029327;28;20602;-72
2021/10/27 14:10:05;;;;;;;14.40;13.00;;;15.50;99.90;;;;;;5008699;28;20616;-71
2021/10/27 14:12:05;;;;;;;13.33;11.97;;;15.50;99.90;;;;;;5014228;28;20798;-71
2021/10/27 14:39:38;;;;;;;11.07;9.90;;;15.40;99.90;;;;;;5020869;28;20649;-71
2021/10/27 14:50:50;;;;;;;10.47;9.50;;;15.50;99.90;;;;;;5020854;28;21204;-70
2021/10/27 14:59:13;;;;;;;10.90;9.00;;;15.50;99.90;;;;;;5021236;28;20615;-71
2021/10/27 15:20:51;;;;;;;7.80;7.10;;;15.40;99.90;;;;;;5022837;28;20650;-71
2021/10/27 15:44:17;;;;;;;9.13;7.27;;;15.50;99.90;;;;;;5025654;28;20603;-72
2021/10/27 15:52:22;;;;;;;8.43;5.73;;;15.40;99.90;;;;;;5022985;28;20662;-71
2021/10/27 15:54:58;;;;;;;6.03;5.50;;;15.40;99.90;;;;;;5024004;28;20611;-71
2021/10/27 15:57:28;;;;;;;6.60;5.83;;;15.40;99.90;;;;;;5026391;28;20941;-72
2021/10/27 15:59:56;;;;;;;6.47;5.83;;;15.40;99.90;;;;;;5025357;28;20592;-73
2021/10/27 16:02:24;;;;;;;6.87;5.40;;;15.50;99.90;;;;;;5025404;28;20670;-71
2021/10/27 16:04:53;;;;;;;5.97;5.07;;;15.60;99.90;;;;;;5024707;28;21162;-71
2021/10/27 16:07:31;;;;;;;6.53;5.90;;;15.40;99.90;;;;;;5026514;28;20622;-71
2021/10/27 16:10:03;;;;;;;5.57;5.07;;;15.40;99.90;;;;;;5024695;28;20631;-71
2021/10/27 16:12:28;;;;;;;6.23;5.60;;;15.50;99.90;;;;;;5024989;28;20628;-72
2021/10/27 16:14:55;;;;;;;9.17;5.17;;;15.50;99.90;;;;;;5027784;28;20607;-72
2021/10/27 16:17:26;;;;;;;5.27;4.77;;;15.50;99.90;;;;;;5026289;28;20565;-72
2021/10/27 16:19:57;;;;;;;5.13;4.63;;;15.50;99.90;;;;;;5002050;28;21051;-71
2021/10/27 16:22:31;;;;;;;8.57;5.03;;;15.50;99.90;;;;;;5019766;28;20639;-72
2021/10/27 16:24:59;;;;;;;5.80;5.20;;;15.40;99.90;;;;;;5023169;28;21158;-73
2021/10/27 16:27:27;;;;;;;8.20;5.43;;;15.40;99.90;;;;;;5024312;28;20610;-73
2021/10/27 16:29:54;;;;;;;5.87;5.30;;;15.50;99.90;;;;;;5021991;28;20650;-72
2021/10/27 16:32:20;;;;;;;7.93;5.07;;;15.40;99.90;;;;;;5022605;28;20642;-73
2021/10/27 16:34:48;;;;;;;6.70;5.37;;;15.40;99.90;;;;;;5005477;28;20600;-72
2021/10/27 16:37:20;;;;;;;7.00;5.20;;;15.60;99.90;;;;;;5025040;28;20211;-72
2021/10/27 16:39:45;;;;;;;6.03;5.43;;;15.40;99.90;;;;;;5023705;28;20786;-71
2021/10/27 16:42:11;;;;;;;7.50;5.73;;;15.40;99.90;;;;;;5024923;28;20807;-72
2021/10/27 16:44:37;;;;;;;6.57;5.87;;;15.40;99.90;;;;;;5022869;28;20212;-71
2021/10/27 16:47:12;;;;;;;6.17;5.57;;;15.40;99.90;;;;;;5024302;28;20185;-72
2021/10/27 16:49:43;;;;;;;5.83;5.30;;;15.40;99.90;;;;;;5024635;28;20239;-73
2021/10/27 16:52:09;;;;;;;5.80;5.20;;;15.50;99.90;;;;;;5020450;28;21278;-73
2021/10/27 16:54:37;;;;;;;6.20;5.60;;;15.50;99.90;;;;;;5025829;28;21060;-72
2021/10/27 16:57:08;;;;;;;5.13;4.40;;;15.50;99.90;;;;;;5025697;28;20707;-71
2021/10/27 16:59:36;;;;;;;5.80;5.03;;;15.40;99.90;;;;;;5026540;28;20602;-71
2021/10/27 17:02:06;;;;;;;5.90;5.30;;;15.40;99.90;;;;;;5021134;28;20829;-71
2021/10/27 17:04:32;;;;;;;6.60;5.60;;;15.40;99.90;;;;;;5021578;28;20665;-71
2021/10/27 17:06:59;;;;;;;5.63;5.13;;;15.40;99.90;;;;;;5022737;28;20612;-71
2021/10/27 17:09:27;;;;;;;6.97;5.70;;;15.40;99.90;;;;;;5022447;28;20204;-71
2021/10/27 17:11:57;;;;;;;6.77;6.07;;;15.40;99.90;;;;;;5021833;28;20673;-71
2021/10/27 17:14:27;;;;;;;6.63;5.70;;;15.40;99.90;;;;;;5025911;28;20679;-71
2021/10/27 17:16:56;;;;;;;6.70;6.10;;;15.40;99.90;;;;;;5005271;28;20696;-71
2021/10/27 17:19:21;;;;;;;6.03;5.10;;;15.40;99.90;;;;;;5025429;28;20615;-71
2021/10/27 17:21:47;;;;;;;6.20;5.40;;;15.40;99.90;;;;;;5012969;28;20991;-71
2021/10/27 17:24:17;;;;;;;6.90;5.57;;;15.40;99.90;;;;;;5027008;28;20235;-71
2021/10/27 17:26:43;;;;;;;6.53;5.10;;;15.40;99.90;;;;;;5023579;28;20249;-71
2021/10/27 17:29:09;;;;;;;5.80;5.30;;;15.40;99.90;;;;;;5025189;28;21194;-71
2021/10/27 17:31:35;;;;;;;5.00;4.50;;;15.40;99.90;;;;;;5023754;28;20742;-71